createdAt,value
2023-05-03T00:00:52.279Z,36.85
2023-05-03T00:01:51.849Z,36.82
2023-05-03T00:02:51.900Z,36.85
2023-05-03T00:03:51.904Z,36.84
2023-05-03T00:04:51.957Z,36.85
2023-05-03T00:05:52.295Z,36.84
2023-05-03T00:06:52.090Z,36.77
2023-05-03T00:07:52.060Z,36.87
2023-05-03T00:08:52.072Z,36.79
2023-05-03T00:09:52.171Z,36.82
2023-05-03T00:10:52.176Z,36.85
2023-05-03T00:11:52.217Z,36.82
2023-05-03T00:12:52.239Z,36.86
2023-05-03T00:13:52.280Z,36.80
2023-05-03T00:14:52.335Z,36.81
2023-05-03T00:15:52.378Z,36.86
2023-05-03T00:16:52.420Z,36.83
2023-05-03T00:17:52.484Z,36.76
2023-05-03T00:18:52.485Z,36.81
2023-05-03T00:19:52.545Z,36.82
2023-05-03T00:20:52.550Z,36.80
2023-05-03T00:21:52.566Z,36.81
2023-05-03T00:22:52.651Z,36.81
2023-05-03T00:23:52.661Z,36.84
2023-05-03T00:24:52.707Z,36.82
2023-05-03T00:25:52.746Z,36.84
2023-05-03T00:26:52.766Z,36.82
2023-05-03T00:27:52.812Z,36.83
2023-05-03T00:28:52.865Z,36.80
2023-05-03T00:29:52.905Z,36.77
2023-05-03T00:30:52.939Z,36.78
2023-05-03T00:31:52.938Z,36.77
2023-05-03T00:32:53.033Z,36.80
2023-05-03T00:33:53.005Z,36.81
2023-05-03T00:34:53.056Z,36.79
2023-05-03T00:35:53.077Z,36.77
2023-05-03T00:36:53.123Z,36.84
2023-05-03T00:37:53.168Z,36.80
2023-05-03T00:38:53.202Z,36.81
2023-05-03T00:39:53.211Z,36.77
2023-05-03T00:40:53.284Z,36.81
2023-05-03T00:41:53.332Z,36.81
2023-05-03T00:42:53.365Z,36.85
2023-05-03T00:43:53.416Z,36.81
2023-05-03T00:44:54.674Z,36.80
2023-05-03T00:45:57.112Z,36.82
2023-05-03T00:46:54.507Z,36.81
2023-05-03T00:47:53.456Z,36.78
2023-05-03T00:48:53.450Z,36.79
2023-05-03T00:49:53.419Z,36.82
2023-05-03T00:50:53.450Z,36.82
2023-05-03T00:51:53.427Z,36.81
2023-05-03T00:52:53.522Z,36.77
2023-05-03T00:53:53.416Z,36.77
2023-05-03T00:54:53.427Z,36.77
2023-05-03T00:55:53.413Z,36.78
2023-05-03T00:56:53.366Z,36.78
2023-05-03T00:57:53.371Z,36.77
2023-05-03T00:58:53.424Z,36.80
2023-05-03T00:59:53.420Z,36.82
2023-05-03T01:00:53.548Z,36.79
2023-05-03T01:01:53.615Z,36.80
2023-05-03T01:02:53.577Z,36.80
2023-05-03T01:03:53.645Z,36.82
2023-05-03T01:04:53.628Z,36.78
2023-05-03T01:05:53.629Z,36.78
2023-05-03T01:06:53.759Z,36.78
2023-05-03T01:07:53.701Z,36.80
2023-05-03T01:08:53.719Z,36.77
2023-05-03T01:09:53.760Z,36.78
2023-05-03T01:10:54.329Z,36.81
2023-05-03T01:11:53.873Z,36.76
2023-05-03T01:12:53.874Z,36.78
2023-05-03T01:13:53.958Z,36.82
2023-05-03T01:14:54.001Z,36.80
2023-05-03T01:15:54.117Z,36.77
2023-05-03T01:16:54.071Z,36.81
2023-05-03T01:17:54.115Z,36.78
2023-05-03T01:18:54.161Z,36.79
2023-05-03T01:19:54.196Z,36.81
2023-05-03T01:20:54.250Z,36.80
2023-05-03T01:21:54.279Z,36.80
2023-05-03T01:22:54.335Z,36.77
2023-05-03T01:23:54.341Z,36.81
2023-05-03T01:24:54.370Z,36.78
2023-05-03T01:25:54.466Z,36.79
2023-05-03T01:26:54.468Z,36.78
2023-05-03T01:27:54.536Z,36.80
2023-05-03T01:28:54.541Z,36.76
2023-05-03T01:29:54.619Z,36.79
2023-05-03T01:30:54.681Z,36.78
2023-05-03T01:31:54.776Z,36.78
2023-05-03T01:32:54.732Z,36.72
2023-05-03T01:33:54.787Z,36.77
2023-05-03T01:34:54.826Z,36.75
2023-05-03T01:35:54.880Z,36.80
2023-05-03T01:36:54.888Z,36.75
2023-05-03T01:37:54.931Z,36.79
2023-05-03T01:38:55.010Z,36.82
2023-05-03T01:39:55.052Z,36.76
2023-05-03T01:40:55.054Z,36.78
2023-05-03T01:41:55.104Z,36.80
2023-05-03T01:42:55.160Z,36.76
2023-05-03T01:43:55.201Z,36.80
2023-05-03T01:44:55.234Z,36.80
2023-05-03T01:45:55.312Z,36.74
2023-05-03T01:46:55.330Z,36.74
2023-05-03T01:47:55.381Z,36.76
2023-05-03T01:48:55.403Z,36.78
2023-05-03T01:49:55.425Z,36.79
2023-05-03T01:50:55.475Z,36.74
2023-05-03T01:51:55.482Z,36.78
2023-05-03T01:52:55.553Z,36.76
2023-05-03T01:53:55.559Z,36.76
2023-05-03T01:54:55.638Z,36.73
2023-05-03T01:55:55.670Z,36.76
2023-05-03T01:56:55.708Z,36.77
2023-05-03T01:57:55.742Z,36.71
2023-05-03T01:58:55.788Z,36.75
2023-05-03T01:59:55.864Z,36.76
2023-05-03T02:00:55.885Z,36.76
2023-05-03T02:01:55.926Z,36.70
2023-05-03T02:02:56.006Z,36.75
2023-05-03T02:03:55.995Z,36.74
2023-05-03T02:04:56.095Z,36.69
2023-05-03T02:05:56.055Z,36.74
2023-05-03T02:06:56.105Z,36.75
2023-05-03T02:07:56.156Z,36.76
2023-05-03T02:08:56.236Z,36.75
2023-05-03T02:09:56.239Z,36.77
2023-05-03T02:10:56.301Z,36.74
2023-05-03T02:11:56.311Z,36.74
2023-05-03T02:12:56.383Z,36.70
2023-05-03T02:13:56.453Z,36.75
2023-05-03T02:14:56.462Z,36.69
2023-05-03T02:15:56.821Z,36.74
2023-05-03T02:16:56.648Z,36.75
2023-05-03T02:17:56.612Z,36.75
2023-05-03T02:18:56.638Z,36.75
2023-05-03T02:19:56.659Z,36.80
2023-05-03T02:20:56.765Z,36.73
2023-05-03T02:21:56.835Z,36.71
2023-05-03T02:22:56.813Z,36.76
2023-05-03T02:23:56.956Z,36.79
2023-05-03T02:24:56.940Z,36.74
2023-05-03T02:25:56.956Z,36.75
2023-05-03T02:26:57.035Z,36.75
2023-05-03T02:27:57.080Z,36.74
2023-05-03T02:28:57.110Z,36.76
2023-05-03T02:29:57.251Z,36.75
2023-05-03T02:30:57.255Z,36.74
2023-05-03T02:31:57.252Z,36.79
2023-05-03T02:32:57.271Z,36.75
2023-05-03T02:33:57.337Z,36.75
2023-05-03T02:34:57.366Z,36.75
2023-05-03T02:35:57.433Z,36.71
2023-05-03T02:36:57.468Z,36.73
2023-05-03T02:37:57.494Z,36.74
2023-05-03T02:38:57.550Z,36.75
2023-05-03T02:39:57.617Z,36.74
2023-05-03T02:40:57.632Z,36.75
2023-05-03T02:41:57.677Z,36.73
2023-05-03T02:42:57.753Z,36.75
2023-05-03T02:43:57.776Z,36.76
2023-05-03T02:44:57.842Z,36.75
2023-05-03T02:45:57.980Z,36.76
2023-05-03T02:46:57.936Z,36.77
2023-05-03T02:47:58.011Z,36.69
2023-05-03T02:48:58.031Z,36.74
2023-05-03T02:49:58.094Z,36.75
2023-05-03T02:50:58.129Z,36.78
2023-05-03T02:51:58.195Z,36.73
2023-05-03T02:52:58.234Z,36.71
2023-05-03T02:53:58.264Z,36.73
2023-05-03T02:54:58.310Z,36.71
2023-05-03T02:55:58.836Z,36.75
2023-05-03T02:56:58.391Z,36.71
2023-05-03T02:57:58.449Z,36.72
2023-05-03T02:58:58.472Z,36.74
2023-05-03T02:59:58.652Z,36.76
2023-05-03T03:00:58.608Z,36.73
2023-05-03T03:01:58.715Z,36.71
2023-05-03T03:02:58.755Z,36.72
2023-05-03T03:03:58.857Z,36.71
2023-05-03T03:04:58.798Z,36.70
2023-05-03T03:05:58.836Z,36.75
2023-05-03T03:06:58.886Z,36.71
2023-05-03T03:07:58.915Z,36.69
2023-05-03T03:08:58.972Z,36.70
2023-05-03T03:09:59.018Z,36.71
2023-05-03T03:10:59.335Z,36.71
2023-05-03T03:11:59.116Z,36.75
2023-05-03T03:12:59.152Z,36.70
2023-05-03T03:13:59.235Z,36.75
2023-05-03T03:14:59.224Z,36.71
2023-05-03T03:15:59.444Z,36.71
2023-05-03T03:16:59.338Z,36.69
2023-05-03T03:17:59.459Z,36.72
2023-05-03T03:18:59.464Z,36.74
2023-05-03T03:19:59.567Z,36.66
2023-05-03T03:20:59.577Z,36.70
2023-05-03T03:21:59.589Z,36.69
2023-05-03T03:22:59.638Z,36.70
2023-05-03T03:23:59.710Z,36.64
2023-05-03T03:24:59.759Z,36.70
2023-05-03T03:25:59.845Z,36.69
2023-05-03T03:26:59.822Z,36.71
2023-05-03T03:27:59.881Z,36.69
2023-05-03T03:28:59.949Z,36.70
2023-05-03T03:29:59.991Z,36.71
2023-05-03T03:31:00.382Z,36.67
2023-05-03T03:32:00.113Z,36.71
2023-05-03T03:33:00.196Z,36.67
2023-05-03T03:34:00.203Z,36.66
2023-05-03T03:35:00.224Z,36.63
2023-05-03T03:36:00.397Z,36.67
2023-05-03T03:37:00.340Z,36.66
2023-05-03T03:38:00.392Z,36.62
2023-05-03T03:39:00.418Z,36.64
2023-05-03T03:40:00.682Z,36.61
2023-05-03T03:41:00.911Z,36.64
2023-05-03T03:42:00.599Z,36.62
2023-05-03T03:43:00.656Z,36.65
2023-05-03T03:44:00.694Z,36.61
2023-05-03T03:45:00.724Z,36.63
2023-05-03T03:46:00.780Z,36.58
2023-05-03T03:47:00.901Z,36.56
2023-05-03T03:48:00.896Z,36.58
2023-05-03T03:49:00.945Z,36.61
2023-05-03T03:50:01.387Z,36.59
2023-05-03T03:51:01.023Z,36.60
2023-05-03T03:52:01.406Z,36.60
2023-05-03T03:53:01.138Z,36.56
2023-05-03T03:54:01.198Z,36.56
2023-05-03T03:55:01.872Z,36.57
2023-05-03T03:56:01.297Z,36.58
2023-05-03T03:57:01.359Z,36.54
2023-05-03T03:58:01.381Z,36.58
2023-05-03T03:59:01.419Z,36.53
2023-05-03T04:00:01.891Z,36.58
2023-05-03T04:01:01.566Z,36.58
2023-05-03T04:02:01.960Z,36.56
2023-05-03T04:03:01.699Z,36.56
2023-05-03T04:04:01.911Z,36.56
2023-05-03T04:05:01.738Z,36.53
2023-05-03T04:06:01.840Z,36.55
2023-05-03T04:07:01.860Z,36.52
2023-05-03T04:08:01.997Z,36.58
2023-05-03T04:09:01.922Z,36.52
2023-05-03T04:10:02.271Z,36.53
2023-05-03T04:11:02.011Z,36.55
2023-05-03T04:12:02.114Z,36.50
2023-05-03T04:13:02.162Z,36.53
2023-05-03T04:14:02.214Z,36.51
2023-05-03T04:15:02.259Z,36.53
2023-05-03T04:16:03.953Z,36.51
2023-05-03T04:17:02.397Z,36.48
2023-05-03T04:18:02.416Z,36.47
2023-05-03T04:19:02.446Z,36.52
2023-05-03T04:20:02.610Z,36.52
2023-05-03T04:21:02.553Z,36.48
2023-05-03T04:22:02.611Z,36.52
2023-05-03T04:23:02.664Z,36.52
2023-05-03T04:24:02.738Z,36.47
2023-05-03T04:25:02.769Z,36.51
2023-05-03T04:26:04.838Z,36.43
2023-05-03T04:27:02.927Z,36.42
2023-05-03T04:28:02.984Z,36.42
2023-05-03T04:29:03.069Z,36.47
2023-05-03T04:30:03.576Z,36.44
2023-05-03T04:31:03.248Z,36.44
2023-05-03T04:32:03.224Z,36.43
2023-05-03T04:33:03.293Z,36.44
2023-05-03T04:34:03.359Z,36.42
2023-05-03T04:35:03.330Z,36.44
2023-05-03T04:36:03.419Z,36.42
2023-05-03T04:37:03.478Z,36.43
2023-05-03T04:38:03.524Z,36.44
2023-05-03T04:39:03.591Z,36.43
2023-05-03T04:40:03.872Z,36.42
2023-05-03T04:41:03.686Z,36.40
2023-05-03T04:42:03.740Z,36.43
2023-05-03T04:43:03.768Z,36.38
2023-05-03T04:44:03.816Z,36.40
2023-05-03T04:45:03.895Z,36.38
2023-05-03T04:46:03.978Z,36.38
2023-05-03T04:47:04.003Z,36.39
2023-05-03T04:48:04.085Z,36.40
2023-05-03T04:49:04.114Z,36.36
2023-05-03T04:50:04.529Z,36.36
2023-05-03T04:51:04.185Z,36.39
2023-05-03T04:52:04.228Z,36.38
2023-05-03T04:53:04.325Z,36.33
2023-05-03T04:54:04.371Z,36.35
2023-05-03T04:55:04.393Z,36.34
2023-05-03T04:56:04.486Z,36.35
2023-05-03T04:57:04.511Z,36.40
2023-05-03T04:58:04.557Z,36.35
2023-05-03T04:59:04.630Z,36.35
2023-05-03T05:00:04.809Z,36.31
2023-05-03T05:01:04.727Z,36.33
2023-05-03T05:02:04.826Z,36.27
2023-05-03T05:03:04.908Z,36.33
2023-05-03T05:04:04.860Z,36.35
2023-05-03T05:05:04.882Z,36.30
2023-05-03T05:06:04.995Z,38.80
2023-05-03T05:07:05.021Z,41.59
2023-05-03T05:08:05.036Z,41.73
2023-05-03T05:09:05.071Z,41.79
2023-05-03T05:10:05.378Z,39.74
2023-05-03T05:11:05.119Z,38.94
2023-05-03T05:12:05.164Z,38.03
2023-05-03T05:13:05.150Z,37.80
2023-05-03T05:14:05.177Z,37.71
2023-05-03T05:15:05.149Z,37.54
2023-05-03T05:16:05.161Z,37.51
2023-05-03T05:17:05.252Z,37.50
2023-05-03T05:18:05.241Z,37.48
2023-05-03T05:19:05.258Z,37.45
2023-05-03T05:20:05.463Z,37.33
2023-05-03T05:21:05.267Z,37.23
2023-05-03T05:22:05.265Z,37.21
2023-05-03T05:23:05.297Z,37.15
2023-05-03T05:24:05.312Z,37.12
2023-05-03T05:25:05.343Z,37.06
2023-05-03T05:26:05.358Z,37.05
2023-05-03T05:27:05.373Z,36.98
2023-05-03T05:28:05.412Z,37.11
2023-05-03T05:29:05.414Z,37.12
2023-05-03T05:30:05.638Z,37.09
2023-05-03T05:31:05.481Z,37.07
2023-05-03T05:32:05.541Z,37.02
2023-05-03T05:33:05.569Z,36.96
2023-05-03T05:34:05.536Z,36.88
2023-05-03T05:35:05.556Z,36.87
2023-05-03T05:36:05.582Z,36.87
2023-05-03T05:37:05.614Z,36.81
2023-05-03T05:38:05.611Z,36.79
2023-05-03T05:39:05.659Z,36.79
2023-05-03T05:40:05.937Z,36.76
2023-05-03T05:41:06.514Z,36.75
2023-05-03T05:42:05.708Z,36.85
2023-05-03T05:43:05.794Z,37.01
2023-05-03T05:44:05.755Z,37.05
2023-05-03T05:45:05.775Z,37.03
2023-05-03T05:46:05.828Z,36.90
2023-05-03T05:47:08.131Z,36.90
2023-05-03T05:48:05.883Z,36.94
2023-05-03T05:49:05.780Z,36.83
2023-05-03T05:50:14.958Z,36.90
2023-05-03T05:51:06.814Z,36.87
2023-05-03T05:52:05.784Z,37.05
2023-05-03T05:53:05.777Z,37.07
2023-05-03T05:54:05.805Z,37.13
2023-05-03T05:55:05.755Z,37.12
2023-05-03T05:56:05.744Z,37.09
2023-05-03T05:57:05.791Z,37.15
2023-05-03T05:58:05.762Z,37.19
2023-05-03T05:59:05.748Z,37.23
2023-05-03T06:00:05.830Z,37.34
2023-05-03T06:01:05.782Z,37.39
2023-05-03T06:02:05.776Z,37.37
2023-05-03T06:03:05.741Z,37.29
2023-05-03T06:04:05.727Z,37.24
2023-05-03T06:05:07.743Z,37.18
2023-05-03T06:06:05.705Z,37.26
2023-05-03T06:07:05.675Z,37.25
2023-05-03T06:08:05.702Z,37.16
2023-05-03T06:09:16.623Z,37.19
2023-05-03T06:10:06.853Z,37.15
2023-05-03T06:11:05.654Z,37.12
2023-05-03T06:12:05.685Z,37.07
2023-05-03T06:13:05.662Z,37.08
2023-05-03T06:14:05.640Z,37.09
2023-05-03T06:15:05.636Z,37.09
2023-05-03T06:16:05.629Z,37.08
2023-05-03T06:17:05.724Z,37.07
2023-05-03T06:18:05.666Z,37.09
2023-05-03T06:19:05.592Z,37.04
2023-05-03T06:20:05.964Z,37.01
2023-05-03T06:21:05.592Z,37.00
2023-05-03T06:22:05.920Z,37.03
2023-05-03T06:23:05.597Z,36.99
2023-05-03T06:24:05.608Z,36.96
2023-05-03T06:25:05.631Z,36.99
2023-05-03T06:26:05.658Z,36.96
2023-05-03T06:27:05.952Z,36.97
2023-05-03T06:28:05.706Z,36.93
2023-05-03T06:29:05.718Z,37.01
2023-05-03T06:30:05.976Z,36.93
2023-05-03T06:31:05.908Z,36.93
2023-05-03T06:32:05.836Z,36.91
2023-05-03T06:33:05.924Z,36.92
2023-05-03T06:34:06.397Z,36.92
2023-05-03T06:35:05.919Z,36.91
2023-05-03T06:36:06.002Z,36.91
2023-05-03T06:37:06.020Z,36.87
2023-05-03T06:38:06.035Z,36.83
2023-05-03T06:39:06.102Z,36.86
2023-05-03T06:40:06.348Z,36.83
2023-05-03T06:41:06.187Z,36.84
2023-05-03T06:42:06.200Z,36.82
2023-05-03T06:43:06.257Z,36.80
2023-05-03T06:44:06.264Z,36.82
2023-05-03T06:45:06.351Z,36.82
2023-05-03T06:46:06.424Z,36.82
2023-05-03T06:47:06.473Z,36.83
2023-05-03T06:48:06.541Z,36.81
2023-05-03T06:49:06.485Z,36.78
2023-05-03T06:50:06.580Z,36.80
2023-05-03T06:51:06.584Z,36.76
2023-05-03T06:52:07.427Z,36.77
2023-05-03T06:53:06.636Z,36.74
2023-05-03T06:54:06.661Z,36.74
2023-05-03T06:55:06.736Z,37.11
2023-05-03T06:56:06.736Z,37.26
2023-05-03T06:57:06.922Z,37.43
2023-05-03T06:58:06.780Z,37.40
2023-05-03T06:59:06.876Z,37.39
2023-05-03T07:00:06.904Z,37.34
2023-05-03T07:01:06.945Z,37.42
2023-05-03T07:02:07.044Z,37.58
2023-05-03T07:03:07.120Z,37.69
2023-05-03T07:04:07.160Z,38.04
2023-05-03T07:05:07.121Z,38.06
2023-05-03T07:06:07.145Z,38.09
2023-05-03T07:07:07.224Z,38.14
2023-05-03T07:08:08.185Z,38.16
2023-05-03T07:09:07.202Z,38.18
2023-05-03T07:10:07.385Z,38.20
2023-05-03T07:11:07.214Z,38.26
2023-05-03T07:12:07.227Z,38.21
2023-05-03T07:13:07.217Z,38.26
2023-05-03T07:14:07.235Z,38.24
2023-05-03T07:15:07.309Z,38.33
2023-05-03T07:16:07.296Z,38.46
2023-05-03T07:17:07.420Z,38.51
2023-05-03T07:18:07.365Z,38.54
2023-05-03T07:19:07.382Z,38.60
2023-05-03T07:20:07.437Z,38.70
2023-05-03T07:21:09.339Z,38.68
2023-05-03T07:22:07.558Z,38.77
2023-05-03T07:23:07.544Z,38.85
2023-05-03T07:24:07.617Z,38.94
2023-05-03T07:25:07.692Z,38.83
2023-05-03T07:26:07.736Z,38.95
2023-05-03T07:27:07.761Z,38.95
2023-05-03T07:28:07.864Z,39.05
2023-05-03T07:29:07.854Z,38.99
2023-05-03T07:30:07.917Z,39.16
2023-05-03T07:31:07.953Z,39.17
2023-05-03T07:32:08.007Z,39.15
2023-05-03T07:33:08.130Z,39.28
2023-05-03T07:34:08.038Z,39.26
2023-05-03T07:35:08.094Z,39.33
2023-05-03T07:36:08.184Z,39.41
2023-05-03T07:37:08.212Z,39.46
2023-05-03T07:38:08.223Z,39.52
2023-05-03T07:39:08.227Z,39.60
2023-05-03T07:40:08.239Z,39.60
2023-05-03T07:41:08.389Z,39.76
2023-05-03T07:42:08.311Z,39.76
2023-05-03T07:43:08.361Z,39.78
2023-05-03T07:44:08.327Z,39.91
2023-05-03T07:45:08.380Z,39.96
2023-05-03T07:46:08.412Z,40.23
2023-05-03T07:47:08.423Z,39.81
2023-05-03T07:48:08.471Z,37.68
2023-05-03T07:49:08.560Z,37.71
2023-05-03T07:50:08.475Z,37.00
2023-05-03T07:51:08.579Z,37.06
2023-05-03T07:52:08.926Z,37.79
2023-05-03T07:53:08.570Z,38.05
2023-05-03T07:54:08.602Z,37.84
2023-05-03T07:55:08.646Z,37.54
2023-05-03T07:56:08.657Z,38.40
2023-05-03T07:57:08.694Z,38.76
2023-05-03T07:58:08.921Z,39.24
2023-05-03T07:59:10.535Z,39.52
2023-05-03T08:00:08.741Z,39.66
2023-05-03T08:01:08.760Z,39.79
2023-05-03T08:02:08.849Z,39.97
2023-05-03T08:03:08.955Z,40.02
2023-05-03T08:04:09.154Z,40.20
2023-05-03T08:05:09.026Z,40.16
2023-05-03T08:06:08.941Z,40.21
2023-05-03T08:07:08.982Z,40.20
2023-05-03T08:08:09.001Z,40.32
2023-05-03T08:09:09.060Z,40.46
2023-05-03T08:10:09.111Z,40.61
2023-05-03T08:11:10.098Z,40.61
2023-05-03T08:12:09.098Z,40.67
2023-05-03T08:13:09.092Z,40.78
2023-05-03T08:14:09.079Z,40.91
2023-05-03T08:15:09.074Z,40.80
2023-05-03T08:16:09.074Z,41.08
2023-05-03T08:17:09.071Z,41.00
2023-05-03T08:18:09.097Z,41.29
2023-05-03T08:19:09.079Z,41.12
2023-05-03T08:20:09.041Z,41.20
2023-05-03T08:21:09.041Z,41.20
2023-05-03T08:22:09.037Z,41.28
2023-05-03T08:23:09.014Z,41.37
2023-05-03T08:24:09.012Z,41.38
2023-05-03T08:25:09.009Z,41.26
2023-05-03T08:26:09.016Z,41.39
2023-05-03T08:27:08.998Z,41.43
2023-05-03T08:28:09.021Z,41.56
2023-05-03T08:29:08.979Z,41.48
2023-05-03T08:30:09.072Z,41.62
2023-05-03T08:31:09.211Z,41.76
2023-05-03T08:32:09.083Z,41.77
2023-05-03T08:33:09.156Z,41.61
2023-05-03T08:34:09.186Z,41.91
2023-05-03T08:35:09.237Z,41.91
2023-05-03T08:36:09.241Z,41.89
2023-05-03T08:37:09.328Z,41.89
2023-05-03T08:38:09.362Z,42.12
2023-05-03T08:39:09.435Z,42.38
2023-05-03T08:40:09.429Z,42.09
2023-05-03T08:41:09.429Z,40.25
2023-05-03T08:42:09.473Z,39.79
2023-05-03T08:43:09.508Z,39.38
2023-05-03T08:44:09.536Z,39.74
2023-05-03T08:45:09.569Z,40.25
2023-05-03T08:46:09.564Z,40.33
2023-05-03T08:47:09.694Z,39.91
2023-05-03T08:48:09.602Z,38.95
2023-05-03T08:49:09.615Z,37.28
2023-05-03T08:50:09.615Z,36.76
2023-05-03T08:51:09.640Z,36.49
2023-05-03T08:52:09.697Z,37.51
2023-05-03T08:53:09.730Z,38.07
2023-05-03T08:54:09.741Z,38.12
2023-05-03T08:55:09.891Z,38.49
2023-05-03T08:56:09.835Z,38.06
2023-05-03T08:57:09.878Z,38.23
2023-05-03T08:58:09.904Z,37.66
2023-05-03T08:59:09.875Z,37.48
2023-05-03T09:00:09.928Z,38.45
2023-05-03T09:01:09.912Z,38.43
2023-05-03T09:02:09.977Z,38.38
2023-05-03T09:03:10.607Z,37.87
2023-05-03T09:04:10.139Z,38.52
2023-05-03T09:05:09.977Z,38.47
2023-05-03T09:06:10.105Z,38.66
2023-05-03T09:07:10.047Z,38.82
2023-05-03T09:08:10.065Z,38.86
2023-05-03T09:09:10.036Z,39.12
2023-05-03T09:10:10.089Z,39.27
2023-05-03T09:11:10.052Z,39.41
2023-05-03T09:12:10.113Z,39.52
2023-05-03T09:13:10.181Z,39.81
2023-05-03T09:14:10.264Z,40.11
2023-05-03T09:15:10.179Z,40.10
2023-05-03T09:16:10.294Z,40.25
2023-05-03T09:17:10.293Z,40.85
2023-05-03T09:18:10.480Z,40.90
2023-05-03T09:19:10.417Z,40.91
2023-05-03T09:20:10.467Z,40.89
2023-05-03T09:21:11.466Z,40.90
2023-05-03T09:22:10.522Z,41.05
2023-05-03T09:23:10.545Z,41.22
2023-05-03T09:24:10.556Z,41.46
2023-05-03T09:25:10.627Z,41.58
2023-05-03T09:26:10.657Z,41.76
2023-05-03T09:27:10.676Z,41.75
2023-05-03T09:28:10.732Z,41.71
2023-05-03T09:29:10.742Z,41.77
2023-05-03T09:30:10.745Z,41.86
2023-05-03T09:31:11.561Z,42.33
2023-05-03T09:32:10.850Z,42.31
2023-05-03T09:33:10.884Z,42.30
2023-05-03T09:34:10.871Z,42.40
2023-05-03T09:35:10.905Z,42.83
2023-05-03T09:36:10.916Z,42.74
2023-05-03T09:37:10.934Z,42.74
2023-05-03T09:38:10.916Z,42.72
2023-05-03T09:39:10.934Z,42.99
2023-05-03T09:40:10.969Z,42.90
2023-05-03T09:41:11.022Z,42.86
2023-05-03T09:42:11.021Z,43.25
2023-05-03T09:43:11.052Z,43.36
2023-05-03T09:44:11.085Z,43.85
2023-05-03T09:45:11.093Z,43.74
2023-05-03T09:46:11.158Z,43.58
2023-05-03T09:47:11.119Z,43.63
2023-05-03T09:48:11.151Z,44.23
2023-05-03T09:49:11.121Z,44.78
2023-05-03T09:50:11.118Z,44.62
2023-05-03T09:51:11.163Z,43.76
2023-05-03T09:52:11.273Z,43.67
2023-05-03T09:53:11.479Z,43.37
2023-05-03T09:54:11.209Z,43.33
2023-05-03T09:55:11.245Z,43.24
2023-05-03T09:56:11.254Z,43.17
2023-05-03T09:57:11.360Z,43.07
2023-05-03T09:58:11.490Z,42.94
2023-05-03T09:59:11.344Z,42.88
2023-05-03T10:00:11.527Z,42.75
2023-05-03T10:01:11.445Z,42.65
2023-05-03T10:02:11.474Z,42.51
2023-05-03T10:03:11.997Z,42.48
2023-05-03T10:04:11.641Z,42.39
2023-05-03T10:05:11.590Z,42.37
2023-05-03T10:06:11.730Z,42.27
2023-05-03T10:07:12.470Z,42.28
2023-05-03T10:08:11.738Z,42.22
2023-05-03T10:09:11.831Z,42.19
2023-05-03T10:10:11.863Z,42.13
2023-05-03T10:11:11.905Z,42.04
2023-05-03T10:12:11.953Z,42.04
2023-05-03T10:13:12.543Z,41.98
2023-05-03T10:14:12.012Z,41.95
2023-05-03T10:15:12.049Z,41.95
2023-05-03T10:16:12.102Z,41.89
2023-05-03T10:17:12.066Z,41.91
2023-05-03T10:18:12.127Z,41.87
2023-05-03T10:19:14.076Z,41.84
2023-05-03T10:20:12.117Z,41.79
2023-05-03T10:21:12.179Z,41.73
2023-05-03T10:22:12.149Z,41.66
2023-05-03T10:23:12.336Z,41.71
2023-05-03T10:24:12.197Z,41.67
2023-05-03T10:25:13.115Z,41.68
2023-05-03T10:26:12.181Z,41.62
2023-05-03T10:27:12.216Z,41.55
2023-05-03T10:28:12.207Z,41.58
2023-05-03T10:29:12.198Z,41.54
2023-05-03T10:30:12.250Z,41.55
2023-05-03T10:31:12.320Z,41.51
2023-05-03T10:32:12.245Z,41.48
2023-05-03T10:33:12.362Z,41.48
2023-05-03T10:34:12.313Z,41.44
2023-05-03T10:35:12.279Z,41.46
2023-05-03T10:36:12.321Z,41.43
2023-05-03T10:37:12.380Z,41.41
2023-05-03T10:38:12.398Z,41.39
2023-05-03T10:39:12.393Z,41.39
2023-05-03T10:40:12.467Z,41.38
2023-05-03T10:41:12.430Z,41.39
2023-05-03T10:42:12.462Z,41.38
2023-05-03T10:43:12.486Z,41.30
2023-05-03T10:44:12.522Z,41.29
2023-05-03T10:45:12.608Z,41.24
2023-05-03T10:46:12.597Z,41.25
2023-05-03T10:47:12.551Z,41.25
2023-05-03T10:48:13.033Z,41.24
2023-05-03T10:49:12.610Z,41.21
2023-05-03T10:50:12.665Z,41.01
2023-05-03T10:51:12.655Z,41.05
2023-05-03T10:52:12.717Z,41.09
2023-05-03T10:53:12.747Z,41.03
2023-05-03T10:54:12.765Z,41.06
2023-05-03T10:55:12.772Z,41.01
2023-05-03T10:56:12.795Z,40.97
2023-05-03T10:57:12.803Z,40.95
2023-05-03T10:58:12.850Z,40.95
2023-05-03T10:59:12.836Z,40.86
2023-05-03T11:00:12.899Z,40.88
2023-05-03T11:01:12.930Z,40.88
2023-05-03T11:02:12.955Z,40.93
2023-05-03T11:03:13.009Z,40.88
2023-05-03T11:04:13.074Z,40.78
2023-05-03T11:05:13.039Z,40.70
2023-05-03T11:06:13.162Z,40.76
2023-05-03T11:07:13.112Z,40.76
2023-05-03T11:08:13.147Z,40.77
2023-05-03T11:09:13.211Z,40.75
2023-05-03T11:10:13.235Z,40.71
2023-05-03T11:11:13.279Z,40.64
2023-05-03T11:12:13.284Z,40.63
2023-05-03T11:13:13.287Z,40.61
2023-05-03T11:14:13.328Z,40.64
2023-05-03T11:15:13.361Z,40.64
2023-05-03T11:16:13.459Z,40.60
2023-05-03T11:17:13.501Z,40.54
2023-05-03T11:18:13.650Z,40.59
2023-05-03T11:19:13.546Z,40.54
2023-05-03T11:20:13.573Z,40.53
2023-05-03T11:21:13.675Z,40.54
2023-05-03T11:22:13.672Z,40.51
2023-05-03T11:23:13.708Z,40.51
2023-05-03T11:24:13.879Z,40.47
2023-05-03T11:25:13.856Z,40.47
2023-05-03T11:26:13.965Z,40.44
2023-05-03T11:27:13.912Z,40.41
2023-05-03T11:28:13.965Z,40.35
2023-05-03T11:29:13.952Z,40.34
2023-05-03T11:30:14.097Z,40.39
2023-05-03T11:31:14.040Z,40.31
2023-05-03T11:32:14.193Z,40.34
2023-05-03T11:33:14.199Z,40.33
2023-05-03T11:34:14.145Z,40.28
2023-05-03T11:35:14.211Z,40.22
2023-05-03T11:36:14.265Z,40.05
2023-05-03T11:37:14.323Z,40.07
2023-05-03T11:38:14.390Z,40.02
2023-05-03T11:39:14.427Z,39.95
2023-05-03T11:40:14.512Z,39.86
2023-05-03T11:41:14.515Z,39.81
2023-05-03T11:42:14.580Z,39.76
2023-05-03T11:43:14.628Z,39.75
2023-05-03T11:44:17.783Z,39.77
2023-05-03T11:45:14.678Z,39.66
2023-05-03T11:46:14.742Z,39.67
2023-05-03T11:47:14.816Z,39.70
2023-05-03T11:48:14.891Z,39.58
2023-05-03T11:49:14.617Z,39.61
2023-05-03T11:50:14.638Z,39.60
2023-05-03T11:51:14.634Z,39.56
2023-05-03T11:52:14.627Z,39.58
2023-05-03T11:53:14.617Z,39.58
2023-05-03T11:54:25.363Z,39.55
2023-05-03T11:55:15.597Z,39.54
2023-05-03T11:56:14.616Z,39.54
2023-05-03T11:57:14.579Z,39.56
2023-05-03T11:58:14.549Z,39.58
2023-05-03T11:59:14.585Z,39.56
2023-05-03T12:00:14.534Z,39.63
2023-05-03T12:01:14.541Z,39.60
2023-05-03T12:02:14.842Z,39.56
2023-05-03T12:03:14.780Z,39.54
2023-05-03T12:04:14.670Z,39.47
2023-05-03T12:05:14.881Z,39.54
2023-05-03T12:06:14.994Z,39.50
2023-05-03T12:07:17.482Z,39.48
2023-05-03T12:08:15.658Z,39.42
2023-05-03T12:09:14.930Z,39.45
2023-05-03T12:10:19.413Z,39.41
2023-05-03T12:11:18.069Z,39.40
2023-05-03T12:12:16.297Z,39.38
2023-05-03T12:13:16.916Z,39.37
2023-05-03T12:14:16.083Z,39.32
2023-05-03T12:15:16.163Z,39.27
2023-05-03T12:16:15.464Z,39.28
2023-05-03T12:17:15.813Z,39.23
2023-05-03T12:18:14.874Z,39.22
2023-05-03T12:20:51.195Z,39.17
2023-05-03T12:22:24.964Z,39.10
2023-05-03T12:23:16.175Z,38.89
2023-05-03T12:24:15.171Z,36.41
2023-05-03T12:25:15.598Z,36.91
2023-05-03T12:26:14.959Z,38.05
2023-05-03T12:27:14.686Z,37.98
2023-05-03T12:29:14.573Z,37.76
2023-05-03T12:31:17.449Z,37.36
2023-05-03T12:32:14.513Z,37.54
2023-05-03T12:33:15.607Z,37.64
2023-05-03T12:34:32.421Z,37.46
2023-05-03T12:35:19.190Z,37.45
2023-05-03T12:36:14.822Z,37.40
2023-05-03T12:37:17.072Z,37.50
2023-05-03T12:38:16.272Z,37.49
2023-05-03T12:40:32.597Z,37.60
2023-05-03T12:41:21.621Z,37.62
2023-05-03T12:42:15.465Z,37.71
2023-05-03T12:43:14.443Z,37.65
2023-05-03T12:44:16.655Z,37.61
2023-05-03T12:45:14.745Z,37.69
2023-05-03T12:46:33.140Z,37.69
2023-05-03T12:48:14.553Z,37.68
2023-05-03T12:49:15.507Z,37.69
2023-05-03T12:50:18.298Z,37.71
2023-05-03T12:53:16.917Z,37.70
2023-05-03T12:54:18.509Z,37.70
2023-05-03T12:56:14.564Z,37.73
2023-05-03T12:57:15.787Z,37.72
2023-05-03T12:58:46.538Z,37.68
2023-05-03T13:00:15.630Z,37.72
2023-05-03T13:02:17.540Z,37.65
2023-05-03T13:05:33.162Z,37.70
2023-05-03T13:06:15.496Z,37.67